Filia Joy — 3FIN9 — position and weather

sailwx.info

Track history (hours):
 
Tides and Currents Weather Stations Pressure Air Temp Water Temp Dewpoint Dewpoint Depression Visibility Wind Speed Wind Dir Waves Ship Positions

Filia Joy

Last reported at 2017-Jul-17 01:31 UTC. Time now 2017-Jul-25 13:03 UTC.
Position N 01°16' E 103°24'.
Warning: this ship's position is 8 days out of date.

Length 190 m; draft 10.2 m.

Type: Cargo ship. MMSI: 371999000.

Date/timePositionNaut miles runAvg speedWind from/ knotsBaromVisibWave heightAir tempDewpointWater temp
2017-Jul-17 01:31N 01°16' E 103°24'012.0
2017-Jul-17 01:30N 01°16' E 103°24'713.5
2017-Jul-17 01:00N 01°13' E 103°30'612.9
2017-Jul-17 00:30N 01°12' E 103°36'612.2
2017-Jul-17 00:00N 01°10' E 103°42'510.0
2017-Jul-16 23:30N 01°10' E 103°47'510.5
2017-Jul-16 23:00N 01°12' E 103°52'5 9.9
2017-Jul-16 22:30N 01°14' E 103°56'1 2.6
2017-Jul-16 22:01N 01°16' E 103°57'2 2.8
2017-Jul-16 21:28N 01°17' E 103°57'0 0.1
2017-Jul-16 20:43N 01°17' E 103°57'0 0.2
2017-Jul-16 20:22N 01°17' E 103°57'0 0.1
2017-Jul-16 19:04N 01°17' E 103°57'0 0.0
2017-Jul-16 18:55N 01°17' E 103°57'0 0.0
2017-Jul-16 18:19N 01°17' E 103°57'0 0.1
2017-Jul-16 17:49N 01°17' E 103°57'0 0.0
2017-Jul-16 17:25N 01°17' E 103°57'0 0.0
2017-Jul-16 16:46N 01°17' E 103°57'0 0.0
2017-Jul-16 15:37N 01°17' E 103°57'0 0.3
2017-Jul-16 15:25N 01°17' E 103°57'0 0.1
2017-Jul-16 14:55N 01°17' E 103°57'0 0.1
2017-Jul-16 14:16N 01°17' E 103°57'0 0.0
2017-Jul-16 13:55N 01°17' E 103°57'0 0.0
2017-Jul-16 13:19N 01°17' E 103°57'0 0.0
2017-Jul-16 12:49N 01°17' E 103°57'0 0.0
2017-Jul-16 12:25N 01°17' E 103°57'0 0.0
2017-Jul-16 11:37N 01°17' E 103°57'0 0.0
2017-Jul-16 11:28N 01°17' E 103°57'0 0.0
2017-Jul-16 10:55N 01°17' E 103°57'0 0.1
2017-Jul-16 10:19N 01°17' E 103°57'0 0.2
2017-Jul-16 09:58N 01°17' E 103°57'0 0.2
2017-Jul-16 09:29N 01°17' E 103°57'2 4.4
2017-Jul-16 08:59N 01°16' E 103°59'3 4.6
2017-Jul-16 08:23N 01°16' E 104°01'4 8.9
2017-Jul-16 07:58N 01°17' E 104°05'  
2017-Jul-10 16:06N 24°10' E 118°58'212.1
2017-Jul-10 15:58N 24°11' E 118°59'511.7
2017-Jul-10 15:30N 24°14' E 119°04'  
Track history (hours):
 
Tides and Currents Weather Stations Pressure Air Temp Water Temp Dewpoint Dewpoint Depression Visibility Wind Speed Wind Dir Waves Ship Positions

Filia Joy

Last reported at 2017-Jul-17 01:31 UTC. Time now 2017-Jul-25 13:03 UTC.
Position N 01°16' E 103°24'.
Warning: this ship's position is 8 days out of date.

Length 190 m; draft 10.2 m.

Type: Cargo ship. MMSI: 371999000.

Date/timePositionNaut miles runAvg speedWind from/ knotsBaromVisibWave heightAir tempDewpointWater temp
2017-Jul-17 01:31N 01°16' E 103°24'012.0
2017-Jul-17 01:30N 01°16' E 103°24'713.5
2017-Jul-17 01:00N 01°13' E 103°30'612.9
2017-Jul-17 00:30N 01°12' E 103°36'612.2
2017-Jul-17 00:00N 01°10' E 103°42'510.0
2017-Jul-16 23:30N 01°10' E 103°47'510.5
2017-Jul-16 23:00N 01°12' E 103°52'5 9.9
2017-Jul-16 22:30N 01°14' E 103°56'1 2.6
2017-Jul-16 22:01N 01°16' E 103°57'2 2.8
2017-Jul-16 21:28N 01°17' E 103°57'0 0.1
2017-Jul-16 20:43N 01°17' E 103°57'0 0.2
2017-Jul-16 20:22N 01°17' E 103°57'0 0.1
2017-Jul-16 19:04N 01°17' E 103°57'0 0.0
2017-Jul-16 18:55N 01°17' E 103°57'0 0.0
2017-Jul-16 18:19N 01°17' E 103°57'0 0.1
2017-Jul-16 17:49N 01°17' E 103°57'0 0.0
2017-Jul-16 17:25N 01°17' E 103°57'0 0.0
2017-Jul-16 16:46N 01°17' E 103°57'0 0.0
2017-Jul-16 15:37N 01°17' E 103°57'0 0.3
2017-Jul-16 15:25N 01°17' E 103°57'0 0.1
2017-Jul-16 14:55N 01°17' E 103°57'0 0.1
2017-Jul-16 14:16N 01°17' E 103°57'0 0.0
2017-Jul-16 13:55N 01°17' E 103°57'0 0.0
2017-Jul-16 13:19N 01°17' E 103°57'0 0.0
2017-Jul-16 12:49N 01°17' E 103°57'0 0.0
2017-Jul-16 12:25N 01°17' E 103°57'0 0.0
2017-Jul-16 11:37N 01°17' E 103°57'0 0.0
2017-Jul-16 11:28N 01°17' E 103°57'0 0.0
2017-Jul-16 10:55N 01°17' E 103°57'0 0.1
2017-Jul-16 10:19N 01°17' E 103°57'0 0.2
2017-Jul-16 09:58N 01°17' E 103°57'0 0.2
2017-Jul-16 09:29N 01°17' E 103°57'2 4.4
2017-Jul-16 08:59N 01°16' E 103°59'3 4.6
2017-Jul-16 08:23N 01°16' E 104°01'4 8.9
2017-Jul-16 07:58N 01°17' E 104°05'  
2017-Jul-10 16:06N 24°10' E 118°58'212.1
2017-Jul-10 15:58N 24°11' E 118°59'511.7
2017-Jul-10 15:30N 24°14' E 119°04'  

Dump ship's entire track history